| time (UTC) | temp F | wind direction | speed MPH | gust MPH | rain 1hr in | rain 24hr in | rain mn in | humidity % | barometer mb |
| 20260505022536 | 48 | 0 | 0.0 | 4.0 | 0.00 | 0.08 | 0.08 | 66 | 1013.9 |
| 20260505022039 | 49 | 0 | 0.0 | 2.0 | 0.00 | 0.08 | 0.08 | 63 | 1013.9 |
| 20260505021551 | 49 | 190 | 0.0 | 2.0 | 0.00 | 0.08 | 0.08 | 64 | 1013.7 |
| 20260505021038 | 49 | 0 | 0.0 | 2.0 | 0.00 | 0.08 | 0.08 | 62 | 1013.7 |
| 20260505020538 | 50 | 0 | 0.0 | 2.0 | 0.00 | 0.08 | 0.08 | 64 | 1013.6 |
| 20260505020045 | 50 | 0 | 0.0 | 2.0 | 0.00 | 0.08 | 0.08 | 65 | 1013.6 |
| 20260505015540 | 51 | 0 | 0.0 | 4.0 | 0.00 | 0.08 | 0.08 | 63 | 1013.7 |
| 20260505015039 | 51 | 0 | 0.0 | 4.0 | 0.00 | 0.08 | 0.08 | 58 | 1013.6 |
| 20260505014547 | 51 | 190 | 1.0 | 4.0 | 0.00 | 0.08 | 0.08 | 59 | 1013.5 |
| 20260505014038 | 52 | 190 | 1.0 | 4.0 | 0.00 | 0.08 | 0.08 | 59 | 1013.5 |
| 20260505013538 | 52 | 190 | 1.0 | 7.0 | 0.00 | 0.08 | 0.08 | 57 | 1013.5 |
| 20260505013042 | 53 | 190 | 1.0 | 11.0 | 0.00 | 0.08 | 0.08 | 51 | 1013.4 |
| 20260505012538 | 53 | 190 | 5.0 | 11.0 | 0.00 | 0.08 | 0.08 | 50 | 1013.5 |
| 20260505012038 | 52 | 190 | 1.0 | 3.0 | 0.00 | 0.08 | 0.08 | 51 | 1013.5 |
| 20260505011550 | 52 | 190 | 0.0 | 2.0 | 0.00 | 0.08 | 0.08 | 56 | 1013.5 |
| 20260505011039 | 52 | 190 | 0.0 | 2.0 | 0.00 | 0.08 | 0.08 | 57 | 1013.4 |
| 20260505010535 | 52 | 0 | 0.0 | 2.0 | 0.00 | 0.08 | 0.08 | 57 | 1013.4 |
| 20260505010050 | 52 | 190 | 0.0 | 2.0 | 0.00 | 0.08 | 0.08 | 57 | 1013.4 |
| 20260505005539 | 52 | 190 | 0.0 | 3.0 | 0.00 | 0.08 | 0.08 | 58 | 1013.4 |
| 20260505005038 | 52 | 190 | 0.0 | 3.0 | 0.00 | 0.08 | 0.08 | 59 | 1013.4 |
| 20260505004548 | 52 | 190 | 1.0 | 3.0 | 0.00 | 0.08 | 0.08 | 58 | 1013.5 |
| 20260505004038 | 52 | 190 | 0.0 | 5.0 | 0.00 | 0.08 | 0.08 | 61 | 1013.5 |
| 20260505003538 | 52 | 190 | 1.0 | 7.0 | 0.00 | 0.08 | 0.08 | 57 | 1013.6 |
| 20260505003047 | 53 | 190 | 1.0 | 7.0 | 0.00 | 0.08 | 0.08 | 55 | 1013.5 |
| 20260505002541 | 53 | 190 | 1.0 | 4.0 | 0.00 | 0.08 | 0.08 | 54 | 1013.5 |
| 20260505002038 | 53 | 0 | 0.0 | 3.0 | 0.00 | 0.08 | 0.08 | 56 | 1013.5 |
| 20260505001551 | 53 | 190 | 1.0 | 5.0 | 0.00 | 0.08 | 0.08 | 55 | 1013.6 |
| 20260505001038 | 53 | 190 | 2.0 | 7.0 | 0.00 | 0.08 | 0.08 | 56 | 1013.6 |
| 20260505000538 | 52 | 190 | 2.0 | 7.0 | 0.00 | 0.08 | 0.08 | 56 | 1013.8 |
| 20260505000053 | 52 | 190 | 3.0 | 7.0 | 0.00 | 0.08 | 0.08 | 58 | 1013.8 |
| 20260504235538 | 52 | 190 | 2.0 | 6.0 | 0.00 | 0.08 | 0.08 | 58 | 1013.8 |
| 20260504235038 | 52 | 190 | 2.0 | 6.0 | 0.00 | 0.08 | 0.08 | 60 | 1014.0 |
| 20260504234602 | 53 | 190 | 2.0 | 6.0 | 0.00 | 0.08 | 0.08 | 57 | 1014.0 |
| 20260504234039 | 53 | 190 | 2.0 | 7.0 | 0.00 | 0.08 | 0.08 | 57 | 1013.9 |
| 20260504233541 | 53 | 190 | 2.0 | 11.0 | 0.00 | 0.08 | 0.08 | 58 | 1014.0 |
| 20260504233048 | 52 | 190 | 1.0 | 11.0 | 0.00 | 0.08 | 0.08 | 59 | 1014.2 |
| 20260504232539 | 52 | 190 | 3.0 | 8.0 | 0.00 | 0.08 | 0.08 | 58 | 1014.2 |
| 20260504232037 | 53 | 190 | 2.0 | 7.0 | 0.00 | 0.08 | 0.08 | 58 | 1014.1 |
| 20260504231558 | 53 | 190 | 2.0 | 9.0 | 0.00 | 0.08 | 0.08 | 61 | 1014.1 |
| 20260504231038 | 53 | 190 | 2.0 | 9.0 | 0.00 | 0.08 | 0.08 | 59 | 1014.2 |
| 20260504230539 | 52 | 190 | 2.0 | 9.0 | 0.00 | 0.08 | 0.08 | 58 | 1014.1 |
| 20260504230047 | 52 | 190 | 2.0 | 8.0 | 0.00 | 0.08 | 0.08 | 58 | 1014.1 |
| 20260504225539 | 52 | 190 | 2.0 | 10.0 | 0.00 | 0.08 | 0.08 | 60 | 1013.9 |
| 20260504225046 | 52 | 190 | 3.0 | 10.0 | 0.00 | 0.08 | 0.08 | 60 | 1014.0 |
| 20260504224551 | 52 | 190 | 3.0 | 10.0 | 0.00 | 0.08 | 0.08 | 59 | 1014.0 |
| 20260504224038 | 52 | 190 | 2.0 | 10.0 | 0.00 | 0.08 | 0.08 | 60 | 1014.3 |
| 20260504223538 | 52 | 190 | 3.0 | 12.0 | 0.00 | 0.08 | 0.08 | 62 | 1014.3 |
| 20260504223051 | 52 | 190 | 4.0 | 12.0 | 0.00 | 0.08 | 0.08 | 64 | 1014.3 |
| 20260504222538 | 52 | 190 | 4.0 | 11.0 | 0.00 | 0.08 | 0.08 | 62 | 1014.5 |
| 20260504222038 | 54 | 190 | 4.0 | 7.0 | 0.00 | 0.08 | 0.08 | 60 | 1014.5 |
| 20260504221558 | 53 | 190 | 2.0 | 9.0 | 0.00 | 0.08 | 0.08 | 59 | 1014.6 |
| 20260504221038 | 53 | 190 | 3.0 | 9.0 | 0.00 | 0.08 | 0.08 | 60 | 1014.6 |
| 20260504220539 | 53 | 190 | 3.0 | 8.0 | 0.00 | 0.08 | 0.08 | 60 | 1014.6 |
| 20260504220050 | 52 | 190 | 3.0 | 10.0 | 0.00 | 0.08 | 0.08 | 63 | 1014.7 |
| 20260504215538 | 52 | 190 | 3.0 | 10.0 | 0.00 | 0.08 | 0.08 | 62 | 1014.8 |
| 20260504215036 | 52 | 190 | 5.0 | 10.0 | 0.00 | 0.08 | 0.08 | 60 | 1014.8 |
| 20260504214545 | 52 | 190 | 4.0 | 12.0 | 0.00 | 0.08 | 0.08 | 61 | 1014.7 |
| 20260504214038 | 53 | 190 | 7.0 | 12.0 | 0.00 | 0.08 | 0.08 | 56 | 1014.7 |
| 20260504213538 | 53 | 190 | 7.0 | 11.0 | 0.00 | 0.08 | 0.08 | 55 | 1014.8 |
| 20260504213047 | 52 | 190 | 5.0 | 16.0 | 0.00 | 0.08 | 0.08 | 55 | 1014.9 |
| 20260504212539 | 53 | 190 | 6.0 | 17.0 | 0.00 | 0.08 | 0.08 | 54 | 1015.0 |
| 20260504212039 | 54 | 190 | 9.0 | 17.0 | 0.00 | 0.08 | 0.08 | 54 | 1015.2 |
| 20260504211550 | 54 | 190 | 5.0 | 11.0 | 0.00 | 0.08 | 0.08 | 55 | 1015.1 |
| 20260504211038 | 54 | 190 | 5.0 | 8.0 | 0.00 | 0.08 | 0.08 | 58 | 1015.0 |
| 20260504210538 | 55 | 0 | 3.0 | 5.0 | 0.00 | 0.08 | 0.08 | 59 | 1014.8 |
| 20260504205538 | 54 | 190 | 1.0 | 3.0 | 0.00 | 0.08 | 0.08 | 61 | 1014.7 |
| 20260504205041 | 53 | 190 | 1.0 | 3.0 | 0.00 | 0.08 | 0.08 | 63 | 1014.9 |
| 20260504204559 | 51 | 190 | 0.0 | 3.0 | 0.00 | 0.08 | 0.08 | 71 | 1015.0 |
| 20260504204038 | 50 | 190 | 1.0 | 3.0 | 0.00 | 0.08 | 0.08 | 70 | 1015.1 |
| 20260504203538 | 48 | 0 | 0.0 | 2.0 | 0.00 | 0.08 | 0.08 | 75 | 1015.3 |
| 20260504203051 | 47 | 190 | 0.0 | 6.0 | 0.00 | 0.08 | 0.08 | 74 | 1015.4 |
| 20260504202538 | 47 | 190 | 1.0 | 15.0 | 0.00 | 0.08 | 0.08 | 76 | 1015.4 |
| 20260504202039 | 47 | 190 | 5.0 | 17.0 | 0.00 | 0.08 | 0.08 | 77 | 1016.0 |
| 20260504201550 | 47 | 190 | 9.0 | 19.0 | 0.00 | 0.08 | 0.08 | 76 | 1016.1 |
| 20260504201038 | 48 | 190 | 10.0 | 19.0 | 0.00 | 0.08 | 0.08 | 75 | 1016.1 |
| 20260504200538 | 50 | 190 | 11.0 | 19.0 | 0.00 | 0.08 | 0.08 | 69 | 1016.5 |
| 20260504200046 | 53 | 190 | 7.0 | 16.0 | 0.00 | 0.08 | 0.08 | 61 | 1016.0 |
| 20260504195537 | 54 | 190 | 5.0 | 10.0 | 0.00 | 0.08 | 0.08 | 55 | 1015.6 |
| 20260504195037 | 56 | 190 | 2.0 | 8.0 | 0.00 | 0.08 | 0.08 | 54 | 1015.5 |
| 20260504194602 | 56 | 190 | 1.0 | 8.0 | 0.00 | 0.08 | 0.08 | 53 | 1015.3 |
| 20260504194037 | 56 | 190 | 3.0 | 9.0 | 0.00 | 0.08 | 0.08 | 53 | 1015.5 |
| 20260504193536 | 57 | 190 | 3.0 | 12.0 | 0.00 | 0.08 | 0.08 | 51 | 1015.5 |
| 20260504193049 | 57 | 190 | 4.0 | 12.0 | 0.00 | 0.08 | 0.08 | 52 | 1015.5 |
| 20260504192537 | 58 | 190 | 3.0 | 11.0 | 0.00 | 0.08 | 0.08 | 53 | 1015.5 |
| 20260504192038 | 57 | 190 | 4.0 | 11.0 | 0.00 | 0.08 | 0.08 | 55 | 1015.5 |
| 20260504191551 | 56 | 190 | 2.0 | 9.0 | 0.00 | 0.08 | 0.08 | 56 | 1015.6 |
| 20260504191038 | 55 | 190 | 3.0 | 9.0 | 0.00 | 0.08 | 0.08 | 57 | 1015.7 |
| 20260504190538 | 54 | 190 | 3.0 | 9.0 | 0.00 | 0.08 | 0.08 | 57 | 1015.9 |
| 20260504190108 | 55 | 190 | 4.0 | 9.0 | 0.00 | 0.08 | 0.08 | 57 | 1015.9 |
| 20260504185537 | 55 | 190 | 4.0 | 7.0 | 0.00 | 0.08 | 0.08 | 55 | 1016.0 |
| 20260504185037 | 56 | 190 | 3.0 | 7.0 | 0.00 | 0.08 | 0.08 | 58 | 1016.1 |
| 20260504184557 | 55 | 190 | 2.0 | 7.0 | 0.00 | 0.08 | 0.08 | 61 | 1016.2 |
| 20260504184038 | 53 | 190 | 2.0 | 10.0 | 0.00 | 0.08 | 0.08 | 64 | 1016.4 |
| 20260504183539 | 52 | 190 | 1.0 | 10.0 | 0.00 | 0.08 | 0.08 | 67 | 1016.4 |
| 20260504183047 | 50 | 190 | 2.0 | 11.0 | 0.00 | 0.08 | 0.08 | 71 | 1016.7 |
| 20260504182538 | 50 | 190 | 2.0 | 12.0 | 0.00 | 0.08 | 0.08 | 73 | 1016.9 |
| 20260504182038 | 51 | 190 | 4.0 | 15.0 | 0.00 | 0.08 | 0.08 | 65 | 1017.0 |
| 20260504181548 | 54 | 190 | 4.0 | 15.0 | 0.00 | 0.08 | 0.08 | 58 | 1017.0 |
| 20260504181037 | 55 | 190 | 3.0 | 7.0 | 0.00 | 0.08 | 0.08 | 53 | 1016.8 |
| 20260504180538 | 57 | 190 | 2.0 | 7.0 | 0.00 | 0.08 | 0.08 | 54 | 1016.9 |
| 20260504180114 | 56 | 190 | 4.0 | 7.0 | 0.00 | 0.08 | 0.08 | 53 | 1016.8 |
| 20260504175537 | 55 | 190 | 2.0 | 7.0 | 0.00 | 0.08 | 0.08 | 56 | 1016.9 |
| 20260504175038 | 54 | 190 | 2.0 | 6.0 | 0.00 | 0.08 | 0.08 | 57 | 1017.0 |
| 20260504174549 | 53 | 190 | 1.0 | 6.0 | 0.00 | 0.08 | 0.08 | 61 | 1017.1 |
| 20260504174040 | 52 | 190 | 2.0 | 5.0 | 0.00 | 0.08 | 0.08 | 64 | 1017.1 |
| 20260504173538 | 52 | 190 | 2.0 | 5.0 | 0.01 | 0.08 | 0.08 | 62 | 1017.2 |
| 20260504173058 | 52 | 190 | 1.0 | 4.0 | 0.01 | 0.08 | 0.08 | 64 | 1017.3 |
| 20260504172538 | 51 | 190 | 1.0 | 4.0 | 0.01 | 0.08 | 0.08 | 65 | 1017.4 |
| 20260504172037 | 50 | 190 | 1.0 | 4.0 | 0.02 | 0.08 | 0.08 | 67 | 1017.5 |
| 20260504171549 | 49 | 0 | 1.0 | 4.0 | 0.02 | 0.08 | 0.08 | 68 | 1017.6 |
| 20260504171039 | 49 | 0 | 0.0 | 4.0 | 0.02 | 0.08 | 0.08 | 71 | 1017.5 |
| 20260504170539 | 47 | 190 | 0.0 | 4.0 | 0.02 | 0.08 | 0.08 | 72 | 1017.7 |
| 20260504151038 | 47 | 0 | 0.0 | 3.0 | 0.00 | 0.06 | 0.06 | 77 | 1018.9 |
| 20260504150537 | 45 | 190 | 1.0 | 3.0 | 0.00 | 0.06 | 0.06 | 77 | 1019.2 |
| 20260504141038 | 42 | 190 | 0.0 | 1.0 | 0.00 | 0.06 | 0.06 | 80 | 1019.5 |
| 20260504140538 | 42 | 0 | 0.0 | 1.0 | 0.00 | 0.06 | 0.06 | 81 | 1019.5 |
| 20260504130540 | 38 | 190 | 0.0 | 0.0 | 0.02 | 0.06 | 0.06 | 87 | 1019.2 |
| 20260504120111 | 39 | 190 | 1.0 | 5.0 | 0.04 | 0.04 | 0.04 | 87 | 1019.7 |
| 20260504110538 | 39 | 0 | 0.0 | 1.0 | 0.00 | 0.00 | 0.00 | 67 | 1018.9 |
| 20260504100540 | 39 | 0 | 0.0 | 1.0 | 0.00 | 0.00 | 0.00 | 62 | 1018.8 |
| 20260504081548 | 39 | 190 | 0.0 | 1.0 | 0.00 | 0.00 | 0.00 | 60 | 1018.6 |
| 20260504081039 | 39 | 0 | 0.0 | 1.0 | 0.00 | 0.00 | 0.00 | 61 | 1018.7 |
| 20260504080538 | 39 | 190 | 0.0 | 0.0 | 0.00 | 0.00 | 0.00 | 62 | 1018.7 |
| 20260504050539 | 43 | 0 | 0.0 | 0.0 | 0.00 | 0.00 | 0.00 | 52 | 1018.7 |
| 20260504050112 | 43 | 0 | 0.0 | 0.0 | 0.00 | 0.00 | 0.00 | 51 | 1018.7 |
| 20260504045538 | 43 | 0 | 0.0 | 0.0 | 0.00 | 0.00 | 0.00 | 51 | 1018.7 |
| 20260504045042 | 44 | 0 | 0.0 | 0.0 | 0.00 | 0.00 | 0.00 | 49 | 1018.7 |
| 20260504044542 | 44 | 0 | 0.0 | 1.0 | 0.00 | 0.00 | 0.00 | 47 | 1018.6 |
| 20260504044038 | 45 | 190 | 0.0 | 1.0 | 0.00 | 0.00 | 0.00 | 46 | 1018.7 |
| 20260504043538 | 45 | 190 | 0.0 | 2.0 | 0.00 | 0.00 | 0.00 | 46 | 1018.7 |
| 20260504043057 | 46 | 0 | 0.0 | 2.0 | 0.00 | 0.00 | 0.00 | 45 | 1018.7 |
| 20260504042537 | 46 | 190 | 0.0 | 0.0 | 0.00 | 0.00 | 0.00 | 45 | 1018.9 |
| 20260504042037 | 46 | 0 | 0.0 | 0.0 | 0.00 | 0.00 | 0.00 | 45 | 1018.8 |
| 20260504041547 | 47 | 0 | 0.0 | 0.0 | 0.00 | 0.00 | 0.00 | 44 | 1018.7 |
| 20260504041038 | 47 | 0 | 0.0 | 0.0 | 0.00 | 0.00 | 0.00 | 44 | 1018.7 |
| 20260504040537 | 47 | 0 | 0.0 | 0.0 | 0.00 | 0.00 | 0.00 | 43 | 1018.7 |
| 20260504040053 | 47 | 0 | 0.0 | 0.0 | 0.00 | 0.00 | 0.00 | 43 | 1018.8 |
| 20260504035540 | 48 | 0 | 0.0 | 0.0 | 0.00 | 0.00 | 0.00 | 42 | 1018.7 |
| 20260504035037 | 48 | 0 | 0.0 | 0.0 | 0.00 | 0.00 | 0.00 | 41 | 1018.7 |
| 20260504034550 | 48 | 0 | 0.0 | 0.0 | 0.00 | 0.00 | 0.00 | 41 | 1018.7 |
| 20260504034038 | 49 | 0 | 0.0 | 0.0 | 0.00 | 0.00 | 0.00 | 41 | 1018.5 |
| 20260504033540 | 49 | 190 | 0.0 | 0.0 | 0.00 | 0.00 | 0.00 | 40 | 1018.6 |
| 20260504033045 | 49 | 0 | 0.0 | 0.0 | 0.00 | 0.00 | 0.00 | 40 | 1018.7 |
| 20260504032537 | 49 | 0 | 0.0 | 0.0 | 0.00 | 0.00 | 0.00 | 40 | 1018.6 |
| 20260504032036 | 49 | 0 | 0.0 | 0.0 | 0.00 | 0.00 | 0.00 | 39 | 1018.6 |
| 20260504031603 | 50 | 0 | 0.0 | 0.0 | 0.00 | 0.00 | 0.00 | 38 | 1018.5 |
| 20260504031038 | 50 | 0 | 0.0 | 1.0 | 0.00 | 0.00 | 0.00 | 38 | 1018.5 |
| 20260504030538 | 50 | 0 | 0.0 | 3.0 | 0.00 | 0.00 | 0.00 | 38 | 1018.5 |
| 20260504030052 | 51 | 0 | 1.0 | 3.0 | 0.00 | 0.00 | 0.00 | 37 | 1018.4 |
| 20260504025538 | 51 | 190 | 0.0 | 2.0 | 0.00 | 0.00 | 0.00 | 37 | 1018.3 |
| 20260504025038 | 51 | 190 | 0.0 | 1.0 | 0.00 | 0.00 | 0.00 | 36 | 1018.2 |
| 20260504024547 | 52 | 0 | 0.0 | 1.0 | 0.00 | 0.00 | 0.00 | 35 | 1018.3 |
| 20260504024039 | 53 | 0 | 0.0 | 2.0 | 0.00 | 0.00 | 0.00 | 34 | 1018.2 |
| 20260504023538 | 53 | 0 | 0.0 | 5.0 | 0.00 | 0.00 | 0.00 | 33 | 1018.2 |
| 20260504023050 | 54 | 190 | 1.0 | 5.0 | 0.00 | 0.00 | 0.00 | 32 | 1018.1 |